Scot Leipzig — 9HA4096 — position and weather

sailwx.info

Track history (hours):
 
Tides and Currents Weather Stations Pressure Air Temp Water Temp Dewpoint Dewpoint Depression Visibility Wind Speed Wind Dir Waves Ship Positions

Scot Leipzig

Last reported at 2017-Nov-23 01:50 UTC. Time now 2017-Nov-23 07:40 UTC.
Position N 36°41' W 023°50'.

Length 117 m; draft 7.3 m.

Type: Ship (hazmat cat B). MMSI: 249080000.

Date/timePositionNaut miles runAvg speedWind from/ knotsBaromVisibWave heightAir tempDewpointWater temp
2017-Nov-23 01:50N 36°41' W 023°50'413.1
2017-Nov-23 01:30N 36°39' W 023°54'713.2
2017-Nov-23 01:00N 36°36' W 024°01'613.0
2017-Nov-23 00:30N 36°33' W 024°08'713.1
2017-Nov-23 00:00N 36°30' W 024°16'613.0
2017-Nov-22 23:30N 36°27' W 024°23'613.0
2017-Nov-22 23:00N 36°24' W 024°30'612.7
2017-Nov-22 22:30N 36°21' W 024°37'612.8
2017-Nov-22 22:00N 36°18' W 024°44'612.8
2017-Nov-22 21:30N 36°15' W 024°51'612.7
2017-Nov-22 21:01N 36°12' W 024°58'612.9
2017-Nov-22 20:31N 36°09' W 025°05'713.2
2017-Nov-22 20:00N 36°06' W 025°13'613.0
2017-Nov-22 19:30N 36°03' W 025°20'  
Track history (hours):
 
Tides and Currents Weather Stations Pressure Air Temp Water Temp Dewpoint Dewpoint Depression Visibility Wind Speed Wind Dir Waves Ship Positions

Scot Leipzig

Last reported at 2017-Nov-23 01:50 UTC. Time now 2017-Nov-23 07:40 UTC.
Position N 36°41' W 023°50'.

Length 117 m; draft 7.3 m.

Type: Ship (hazmat cat B). MMSI: 249080000.

Date/timePositionNaut miles runAvg speedWind from/ knotsBaromVisibWave heightAir tempDewpointWater temp
2017-Nov-23 01:50N 36°41' W 023°50'413.1
2017-Nov-23 01:30N 36°39' W 023°54'713.2
2017-Nov-23 01:00N 36°36' W 024°01'613.0
2017-Nov-23 00:30N 36°33' W 024°08'713.1
2017-Nov-23 00:00N 36°30' W 024°16'613.0
2017-Nov-22 23:30N 36°27' W 024°23'613.0
2017-Nov-22 23:00N 36°24' W 024°30'612.7
2017-Nov-22 22:30N 36°21' W 024°37'612.8
2017-Nov-22 22:00N 36°18' W 024°44'612.8
2017-Nov-22 21:30N 36°15' W 024°51'612.7
2017-Nov-22 21:01N 36°12' W 024°58'612.9
2017-Nov-22 20:31N 36°09' W 025°05'713.2
2017-Nov-22 20:00N 36°06' W 025°13'613.0
2017-Nov-22 19:30N 36°03' W 025°20'  

Dump ship's entire track history